sensor_id;sensor_type;location;lat;lon;timestamp;pressure;altitude;pressure_sealevel;temperature;humidity
55757;BME280;41676;44.610;44.078;2023-09-18T00:02:41;100885.84;;;13.51;100.00
55757;BME280;41676;44.610;44.078;2023-09-18T00:07:42;100913.41;;;13.74;100.00
55757;BME280;41676;44.610;44.078;2023-09-18T00:12:44;100908.56;;;13.78;100.00
55757;BME280;41676;44.610;44.078;2023-09-18T00:17:44;100908.56;;;13.78;100.00
55757;BME280;41676;44.610;44.078;2023-09-18T00:22:45;100912.44;;;13.67;100.00
55757;BME280;41676;44.610;44.078;2023-09-18T00:27:47;100854.88;;;13.33;100.00
55757;BME280;41676;44.610;44.078;2023-09-18T00:32:48;100907.78;;;13.61;100.00
55757;BME280;41676;44.610;44.078;2023-09-18T00:37:50;100910.31;;;13.62;100.00
55757;BME280;41676;44.610;44.078;2023-09-18T00:42:51;100907.28;;;13.65;100.00
55757;BME280;41676;44.610;44.078;2023-09-18T00:47:52;100872.34;;;13.44;100.00
55757;BME280;41676;44.610;44.078;2023-09-18T00:52:52;100926.09;;;13.72;100.00
55757;BME280;41676;44.610;44.078;2023-09-18T00:57:55;100912.59;;;13.74;100.00
55757;BME280;41676;44.610;44.078;2023-09-18T01:02:56;100880.97;;;13.54;100.00
55757;BME280;41676;44.610;44.078;2023-09-18T01:07:57;100888.63;;;13.57;100.00
55757;BME280;41676;44.610;44.078;2023-09-18T01:13:13;100861.19;;;13.40;100.00
55757;BME280;41676;44.610;44.078;2023-09-18T01:18:16;100916.66;;;13.61;100.00
55757;BME280;41676;44.610;44.078;2023-09-18T01:23:18;100918.97;;;13.64;100.00
55757;BME280;41676;44.610;44.078;2023-09-18T01:28:19;100910.97;;;13.64;100.00
55757;BME280;41676;44.610;44.078;2023-09-18T01:33:20;100917.97;;;13.65;100.00
55757;BME280;41676;44.610;44.078;2023-09-18T01:38:23;100860.41;;;13.23;100.00
55757;BME280;41676;44.610;44.078;2023-09-18T01:43:24;100931.53;;;13.56;100.00
55757;BME280;41676;44.610;44.078;2023-09-18T01:48:25;100882.09;;;13.29;100.00
55757;BME280;41676;44.610;44.078;2023-09-18T01:53:25;100930.03;;;13.53;100.00
55757;BME280;41676;44.610;44.078;2023-09-18T01:58:26;100925.06;;;13.42;100.00
55757;BME280;41676;44.610;44.078;2023-09-18T02:03:27;100931.22;;;13.51;100.00
55757;BME280;41676;44.610;44.078;2023-09-18T02:08:28;100931.53;;;13.56;100.00
55757;BME280;41676;44.610;44.078;2023-09-18T02:13:29;100873.44;;;13.27;100.00
55757;BME280;41676;44.610;44.078;2023-09-18T02:18:29;100869.75;;;13.19;100.00
55757;BME280;41676;44.610;44.078;2023-09-18T02:23:30;100926.69;;;13.51;100.00
55757;BME280;41676;44.610;44.078;2023-09-18T02:28:31;100931.72;;;13.46;100.00
55757;BME280;41676;44.610;44.078;2023-09-18T02:33:32;100932.72;;;13.45;100.00
55757;BME280;41676;44.610;44.078;2023-09-18T02:38:33;100946.72;;;13.55;100.00
55757;BME280;41676;44.610;44.078;2023-09-18T02:43:34;100926.56;;;13.44;100.00
55757;BME280;41676;44.610;44.078;2023-09-18T02:48:35;100945.91;;;13.46;100.00
55757;BME280;41676;44.610;44.078;2023-09-18T02:53:36;100957.75;;;13.52;100.00
55757;BME280;41676;44.610;44.078;2023-09-18T02:58:36;100951.75;;;13.42;100.00
55757;BME280;41676;44.610;44.078;2023-09-18T03:03:37;100894.47;;;13.05;100.00
55757;BME280;41676;44.610;44.078;2023-09-18T03:08:39;100969.25;;;13.53;100.00
55757;BME280;41676;44.610;44.078;2023-09-18T03:13:46;100941.25;;;13.40;100.00
55757;BME280;41676;44.610;44.078;2023-09-18T03:18:47;100904.94;;;13.15;100.00
55757;BME280;41676;44.610;44.078;2023-09-18T03:23:49;100912.94;;;13.15;100.00
55757;BME280;41676;44.610;44.078;2023-09-18T03:28:50;100968.06;;;13.55;100.00
55757;BME280;41676;44.610;44.078;2023-09-18T03:33:51;100987.84;;;13.77;100.00
55757;BME280;41676;44.610;44.078;2023-09-18T03:38:52;100990.28;;;13.87;100.00
55757;BME280;41676;44.610;44.078;2023-09-18T03:43:52;101003.16;;;13.91;100.00
55757;BME280;41676;44.610;44.078;2023-09-18T03:48:53;100998.25;;;14.03;100.00
55757;BME280;41676;44.610;44.078;2023-09-18T03:53:55;100945.47;;;13.74;100.00
55757;BME280;41676;44.610;44.078;2023-09-18T03:58:56;100952.19;;;13.93;100.00
55757;BME280;41676;44.610;44.078;2023-09-18T04:03:59;100944.03;;;13.95;100.00
55757;BME280;41676;44.610;44.078;2023-09-18T04:09:01;100979.00;;;14.39;100.00
55757;BME280;41676;44.610;44.078;2023-09-18T04:14:01;100999.88;;;14.67;100.00
55757;BME280;41676;44.610;44.078;2023-09-18T04:19:03;100987.44;;;14.74;100.00
55757;BME280;41676;44.610;44.078;2023-09-18T04:24:04;101009.66;;;14.97;100.00
55757;BME280;41676;44.610;44.078;2023-09-18T04:29:05;100988.19;;;15.05;100.00
55757;BME280;41676;44.610;44.078;2023-09-18T04:34:06;100993.00;;;15.25;100.00
55757;BME280;41676;44.610;44.078;2023-09-18T04:39:07;100948.41;;;14.88;100.00
55757;BME280;41676;44.610;44.078;2023-09-18T04:44:09;101007.41;;;15.24;100.00
55757;BME280;41676;44.610;44.078;2023-09-18T04:49:13;101008.63;;;15.36;100.00
55757;BME280;41676;44.610;44.078;2023-09-18T04:54:15;100985.44;;;15.43;100.00
55757;BME280;41676;44.610;44.078;2023-09-18T04:59:16;100991.75;;;15.65;99.86
55757;BME280;41676;44.610;44.078;2023-09-18T05:04:16;100948.53;;;16.19;96.59
55757;BME280;41676;44.610;44.078;2023-09-18T05:09:18;100953.97;;;16.91;93.18
55757;BME280;41676;44.610;44.078;2023-09-18T05:14:20;100961.84;;;17.27;91.30
55757;BME280;41676;44.610;44.078;2023-09-18T05:19:20;101002.28;;;17.82;89.22
55757;BME280;41676;44.610;44.078;2023-09-18T05:24:22;101004.09;;;18.16;87.49
55757;BME280;41676;44.610;44.078;2023-09-18T05:29:27;101011.94;;;18.17;86.73
55757;BME280;41676;44.610;44.078;2023-09-18T05:34:28;100990.81;;;18.14;85.98
55757;BME280;41676;44.610;44.078;2023-09-18T05:39:29;100989.44;;;18.38;85.00
55757;BME280;41676;44.610;44.078;2023-09-18T05:44:29;101003.94;;;18.51;84.08
55757;BME280;41676;44.610;44.078;2023-09-18T05:49:30;101010.22;;;18.78;82.81
55757;BME280;41676;44.610;44.078;2023-09-18T05:54:31;100964.22;;;18.66;81.96
55757;BME280;41676;44.610;44.078;2023-09-18T05:59:31;101003.81;;;19.12;81.55
55757;BME280;41676;44.610;44.078;2023-09-18T06:04:33;101012.50;;;19.27;80.08
55757;BME280;41676;44.610;44.078;2023-09-18T06:09:37;101014.50;;;19.78;78.66
55757;BME280;41676;44.610;44.078;2023-09-18T06:14:37;100993.84;;;19.39;78.46
55757;BME280;41676;44.610;44.078;2023-09-18T06:19:38;101006.25;;;19.47;77.18
55757;BME280;41676;44.610;44.078;2023-09-18T06:24:39;101009.34;;;19.64;75.99
55757;BME280;41676;44.610;44.078;2023-09-18T06:29:40;100991.63;;;19.94;74.40
55757;BME280;41676;44.610;44.078;2023-09-18T06:34:43;100993.41;;;20.07;72.51
55757;BME280;41676;44.610;44.078;2023-09-18T06:39:44;100991.31;;;20.16;71.54
55757;BME280;41676;44.610;44.078;2023-09-18T06:44:45;100992.56;;;20.51;70.65
55757;BME280;41676;44.610;44.078;2023-09-18T06:49:46;100979.16;;;20.70;69.29
55757;BME280;41676;44.610;44.078;2023-09-18T06:54:47;100993.38;;;21.09;68.81
55757;BME280;41676;44.610;44.078;2023-09-18T06:59:48;100994.03;;;21.29;67.57
55757;BME280;41676;44.610;44.078;2023-09-18T07:04:49;100997.31;;;21.38;66.40
55757;BME280;41676;44.610;44.078;2023-09-18T07:09:49;101000.91;;;21.50;65.60
55757;BME280;41676;44.610;44.078;2023-09-18T07:14:50;100998.53;;;21.35;64.92
55757;BME280;41676;44.610;44.078;2023-09-18T07:19:51;100995.91;;;21.72;64.02
55757;BME280;41676;44.610;44.078;2023-09-18T07:24:52;100992.38;;;21.90;63.04
55757;BME280;41676;44.610;44.078;2023-09-18T07:29:55;100991.91;;;21.93;61.75
55757;BME280;41676;44.610;44.078;2023-09-18T07:34:56;100986.22;;;21.64;61.87
55757;BME280;41676;44.610;44.078;2023-09-18T07:39:57;100971.50;;;21.60;61.75
55757;BME280;41676;44.610;44.078;2023-09-18T07:44:57;100930.84;;;21.67;60.51
55757;BME280;41676;44.610;44.078;2023-09-18T07:49:59;100933.19;;;21.63;58.81
55757;BME280;41676;44.610;44.078;2023-09-18T07:55:00;100984.84;;;21.74;58.56
55757;BME280;41676;44.610;44.078;2023-09-18T08:00:01;100971.84;;;21.02;59.79
55757;BME280;41676;44.610;44.078;2023-09-18T08:05:08;100975.91;;;21.11;60.28
55757;BME280;41676;44.610;44.078;2023-09-18T08:10:09;100919.44;;;20.60;60.33
55757;BME280;41676;44.610;44.078;2023-09-18T08:15:10;100981.25;;;21.61;59.30
55757;BME280;41676;44.610;44.078;2023-09-18T08:20:11;100967.59;;;22.23;58.32
55757;BME280;41676;44.610;44.078;2023-09-18T08:25:14;100965.53;;;22.49;58.46
55757;BME280;41676;44.610;44.078;2023-09-18T08:30:16;100925.06;;;22.54;56.57
55757;BME280;41676;44.610;44.078;2023-09-18T08:35:17;100917.19;;;22.64;55.26
55757;BME280;41676;44.610;44.078;2023-09-18T08:40:18;100982.22;;;22.88;54.50
55757;BME280;41676;44.610;44.078;2023-09-18T08:45:25;100972.44;;;22.75;54.98
55757;BME280;41676;44.610;44.078;2023-09-18T08:50:28;100980.72;;;22.92;53.59
55757;BME280;41676;44.610;44.078;2023-09-18T08:55:30;100925.09;;;22.77;53.09
55757;BME280;41676;44.610;44.078;2023-09-18T09:00:32;100968.59;;;23.06;52.76
55757;BME280;41676;44.610;44.078;2023-09-18T09:05:33;100965.88;;;23.30;52.33
55757;BME280;41676;44.610;44.078;2023-09-18T09:10:34;100938.56;;;23.19;51.68
55757;BME280;41676;44.610;44.078;2023-09-18T09:15:45;100961.13;;;23.60;52.50
55757;BME280;41676;44.610;44.078;2023-09-18T09:20:56;100893.16;;;23.27;49.25
55757;BME280;41676;44.610;44.078;2023-09-18T09:26:12;100902.50;;;23.71;48.76
55757;BME280;41676;44.610;44.078;2023-09-18T09:31:28;100916.22;;;23.93;48.43
55757;BME280;41676;44.610;44.078;2023-09-18T09:36:30;100949.38;;;23.95;49.91
55757;BME280;41676;44.610;44.078;2023-09-18T09:41:31;100936.03;;;23.41;49.28
55757;BME280;41676;44.610;44.078;2023-09-18T09:46:32;100938.44;;;23.14;49.31
55757;BME280;41676;44.610;44.078;2023-09-18T09:51:33;100944.03;;;23.48;49.33
55757;BME280;41676;44.610;44.078;2023-09-18T09:56:42;100925.94;;;23.77;47.38
55757;BME280;41676;44.610;44.078;2023-09-18T10:01:46;100924.78;;;24.02;47.32
55757;BME280;41676;44.610;44.078;2023-09-18T10:06:58;100915.97;;;24.23;47.61
55757;BME280;41676;44.610;44.078;2023-09-18T10:12:12;100873.88;;;23.63;47.67
55757;BME280;41676;44.610;44.078;2023-09-18T10:17:17;100827.84;;;22.41;48.47
55757;BME280;41676;44.610;44.078;2023-09-18T10:22:31;100917.31;;;22.81;48.67
55757;BME280;41676;44.610;44.078;2023-09-18T10:27:39;100856.09;;;22.92;49.22
55757;BME280;41676;44.610;44.078;2023-09-18T10:32:41;100910.00;;;23.81;48.76
55757;BME280;41676;44.610;44.078;2023-09-18T10:37:42;100905.81;;;23.73;48.17
55757;BME280;41676;44.610;44.078;2023-09-18T10:42:46;100861.69;;;23.66;47.34
55757;BME280;41676;44.610;44.078;2023-09-18T10:47:49;100888.69;;;24.01;47.41
55757;BME280;41676;44.610;44.078;2023-09-18T10:52:50;100901.06;;;24.26;47.49
55757;BME280;41676;44.610;44.078;2023-09-18T10:57:55;100898.84;;;24.40;45.73
55757;BME280;41676;44.610;44.078;2023-09-18T11:03:11;100896.19;;;24.56;45.75
55757;BME280;41676;44.610;44.078;2023-09-18T11:08:30;100830.06;;;24.34;44.54
55757;BME280;41676;44.610;44.078;2023-09-18T11:13:35;100892.34;;;24.91;44.83
55757;BME280;41676;44.610;44.078;2023-09-18T11:18:37;100831.38;;;24.31;45.22
55757;BME280;41676;44.610;44.078;2023-09-18T11:23:39;100890.22;;;23.68;46.01
55757;BME280;41676;44.610;44.078;2023-09-18T11:28:47;100896.50;;;23.05;47.96
55757;BME280;41676;44.610;44.078;2023-09-18T11:33:52;100890.22;;;22.46;47.83
55757;BME280;41676;44.610;44.078;2023-09-18T11:39:00;100895.50;;;22.29;48.27
55757;BME280;41676;44.610;44.078;2023-09-18T11:49:07;100885.63;;;22.16;49.55
55757;BME280;41676;44.610;44.078;2023-09-18T11:54:10;100862.44;;;22.39;47.88
55757;BME280;41676;44.610;44.078;2023-09-18T11:59:11;100867.88;;;22.86;46.85
55757;BME280;41676;44.610;44.078;2023-09-18T12:04:12;100868.28;;;23.30;46.36
55757;BME280;41676;44.610;44.078;2023-09-18T12:09:13;100863.28;;;23.50;46.04
55757;BME280;41676;44.610;44.078;2023-09-18T12:14:18;100861.72;;;23.54;46.45
55757;BME280;41676;44.610;44.078;2023-09-18T12:19:20;100840.78;;;23.50;46.01
55757;BME280;41676;44.610;44.078;2023-09-18T12:24:27;100866.44;;;23.71;45.55
55757;BME280;41676;44.610;44.078;2023-09-18T12:29:28;100855.91;;;23.62;45.93
55757;BME280;41676;44.610;44.078;2023-09-18T12:34:28;100851.78;;;23.72;45.08
55757;BME280;41676;44.610;44.078;2023-09-18T12:39:32;100854.75;;;23.70;45.07
55757;BME280;41676;44.610;44.078;2023-09-18T12:44:33;100850.81;;;23.78;45.31
55757;BME280;41676;44.610;44.078;2023-09-18T12:49:34;100852.97;;;23.76;44.73
55757;BME280;41676;44.610;44.078;2023-09-18T12:54:43;100863.19;;;23.85;44.73
55757;BME280;41676;44.610;44.078;2023-09-18T12:59:54;100844.41;;;23.84;44.94
55757;BME280;41676;44.610;44.078;2023-09-18T13:04:57;100854.72;;;23.82;45.60
55757;BME280;41676;44.610;44.078;2023-09-18T13:10:02;100849.34;;;23.87;44.86
55757;BME280;41676;44.610;44.078;2023-09-18T13:15:06;100831.75;;;23.73;45.42
55757;BME280;41676;44.610;44.078;2023-09-18T13:20:21;100833.38;;;23.74;44.32
55757;BME280;41676;44.610;44.078;2023-09-18T13:25:26;100849.34;;;23.70;45.00
55757;BME280;41676;44.610;44.078;2023-09-18T13:30:28;100825.81;;;23.47;44.62
55757;BME280;41676;44.610;44.078;2023-09-18T13:35:29;100824.31;;;23.39;45.49
55757;BME280;41676;44.610;44.078;2023-09-18T13:40:30;100777.47;;;23.15;44.04
55757;BME280;41676;44.610;44.078;2023-09-18T13:45:34;100854.22;;;23.44;44.03
55757;BME280;41676;44.610;44.078;2023-09-18T13:50:38;100862.38;;;23.33;44.48
55757;BME280;41676;44.610;44.078;2023-09-18T13:55:39;100849.78;;;23.27;44.38
55757;BME280;41676;44.610;44.078;2023-09-18T14:00:40;100870.44;;;23.28;44.03
55757;BME280;41676;44.610;44.078;2023-09-18T14:05:43;100838.75;;;22.93;43.97
55757;BME280;41676;44.610;44.078;2023-09-18T14:10:44;100875.06;;;23.04;45.03
55757;BME280;41676;44.610;44.078;2023-09-18T14:15:45;100869.28;;;22.76;45.56
55757;BME280;41676;44.610;44.078;2023-09-18T14:20:46;100873.03;;;22.52;46.49
55757;BME280;41676;44.610;44.078;2023-09-18T14:25:47;100876.66;;;22.34;46.85
55757;BME280;41676;44.610;44.078;2023-09-18T14:30:49;100877.41;;;22.11;46.90
55757;BME280;41676;44.610;44.078;2023-09-18T14:35:50;100865.31;;;21.83;47.35
55757;BME280;41676;44.610;44.078;2023-09-18T14:40:51;100833.03;;;21.40;48.50
55757;BME280;41676;44.610;44.078;2023-09-18T14:45:52;100881.59;;;21.47;49.25
55757;BME280;41676;44.610;44.078;2023-09-18T14:50:57;100875.13;;;21.11;50.25
55757;BME280;41676;44.610;44.078;2023-09-18T14:55:57;100889.81;;;20.96;50.83
55757;BME280;41676;44.610;44.078;2023-09-18T15:00:58;100842.19;;;20.34;52.82
55757;BME280;41676;44.610;44.078;2023-09-18T15:06:00;100890.16;;;20.32;55.25
55757;BME280;41676;44.610;44.078;2023-09-18T15:11:02;100904.84;;;20.04;56.73
55757;BME280;41676;44.610;44.078;2023-09-18T15:16:04;100891.34;;;19.72;58.24
55757;BME280;41676;44.610;44.078;2023-09-18T15:21:06;100887.31;;;19.36;59.77
55757;BME280;41676;44.610;44.078;2023-09-18T15:26:07;100862.13;;;19.04;60.16
55757;BME280;41676;44.610;44.078;2023-09-18T15:31:08;100914.72;;;19.27;60.08
55757;BME280;41676;44.610;44.078;2023-09-18T15:36:09;100922.59;;;19.08;61.61
55757;BME280;41676;44.610;44.078;2023-09-18T15:41:10;100898.22;;;18.70;63.47
55757;BME280;41676;44.610;44.078;2023-09-18T15:46:15;100864.03;;;18.04;66.55
55757;BME280;41676;44.610;44.078;2023-09-18T15:51:23;100770.97;;;17.15;69.23
55757;BME280;41676;44.610;44.078;2023-09-18T15:56:23;100927.25;;;17.87;68.31
55757;BME280;41676;44.610;44.078;2023-09-18T17:05:27;100917.16;;;15.18;80.01
55757;BME280;41676;44.610;44.078;2023-09-18T17:10:31;100986.94;;;15.46;82.04
55757;BME280;41676;44.610;44.078;2023-09-18T17:15:32;100956.94;;;15.21;81.66
55757;BME280;41676;44.610;44.078;2023-09-18T17:20:33;100956.63;;;15.16;81.90
55757;BME280;41676;44.610;44.078;2023-09-18T17:25:33;100910.47;;;14.84;82.94
55757;BME280;41676;44.610;44.078;2023-09-18T17:30:37;100939.28;;;14.97;83.07
55757;BME280;41676;44.610;44.078;2023-09-18T17:35:39;100974.44;;;15.09;83.52
55757;BME280;41676;44.610;44.078;2023-09-18T17:40:48;100935.53;;;14.83;85.64
55757;BME280;41676;44.610;44.078;2023-09-18T18:11:37;100761.53;;;13.25;90.32
55757;BME280;41676;44.610;44.078;2023-09-18T19:12:55;100881.47;;;13.02;92.97
55757;BME280;41676;44.610;44.078;2023-09-18T19:24:27;100807.28;;;12.42;92.59
55757;BME280;41676;44.610;44.078;2023-09-18T19:36:31;100989.09;;;13.58;93.87
55757;BME280;41676;44.610;44.078;2023-09-18T19:55:22;100836.75;;;12.32;94.14
55757;BME280;41676;44.610;44.078;2023-09-18T20:00:40;100853.06;;;12.37;92.26
55757;BME280;41676;44.610;44.078;2023-09-18T20:06:09;100842.91;;;12.16;93.34
55757;BME280;41676;44.610;44.078;2023-09-18T20:11:43;100796.16;;;11.97;96.06
55757;BME280;41676;44.610;44.078;2023-09-18T20:17:34;100711.41;;;11.43;96.24
55757;BME280;41676;44.610;44.078;2023-09-18T20:23:10;100699.09;;;11.26;93.75
55757;BME280;41676;44.610;44.078;2023-09-18T20:28:50;100779.63;;;11.77;95.44
55757;BME280;41676;44.610;44.078;2023-09-18T20:34:31;100740.66;;;11.35;93.88
55757;BME280;41676;44.610;44.078;2023-09-18T20:39:46;100840.41;;;11.98;96.05
55757;BME280;41676;44.610;44.078;2023-09-18T20:45:03;100764.66;;;11.52;94.21
55757;BME280;41676;44.610;44.078;2023-09-18T20:56:15;100887.84;;;12.11;94.02
55757;BME280;41676;44.610;44.078;2023-09-18T21:01:57;100812.00;;;11.48;93.66
55757;BME280;41676;44.610;44.078;2023-09-18T21:07:01;100956.31;;;12.27;93.87
55757;BME280;41676;44.610;44.078;2023-09-18T21:12:01;100928.47;;;12.13;94.21
55757;BME280;41676;44.610;44.078;2023-09-18T21:17:03;100900.47;;;11.93;94.51
55757;BME280;41676;44.610;44.078;2023-09-18T21:22:15;100965.50;;;12.32;95.77
55757;BME280;41676;44.610;44.078;2023-09-18T21:27:16;100925.97;;;12.03;94.43
55757;BME280;41676;44.610;44.078;2023-09-18T21:32:17;100749.84;;;10.90;94.70
55757;BME280;41676;44.610;44.078;2023-09-18T21:37:19;100919.69;;;11.78;94.70
55757;BME280;41676;44.610;44.078;2023-09-18T21:42:19;100738.69;;;10.52;95.15
55757;BME280;41676;44.610;44.078;2023-09-18T21:52:46;100905.66;;;11.52;95.35
55757;BME280;41676;44.610;44.078;2023-09-18T21:58:01;100816.53;;;10.79;95.08
55757;BME280;41676;44.610;44.078;2023-09-18T22:03:16;100769.34;;;10.39;95.39
55757;BME280;41676;44.610;44.078;2023-09-18T22:08:21;100784.28;;;10.40;95.79
55757;BME280;41676;44.610;44.078;2023-09-18T22:13:33;100917.47;;;11.23;96.15
55757;BME280;41676;44.610;44.078;2023-09-18T22:18:36;100810.72;;;10.49;95.40
55757;BME280;41676;44.610;44.078;2023-09-18T22:23:52;100821.28;;;10.59;96.31
55757;BME280;41676;44.610;44.078;2023-09-18T22:29:15;100729.50;;;9.95;96.68
55757;BME280;41676;44.610;44.078;2023-09-18T22:34:46;100776.47;;;10.20;97.75
55757;BME280;41676;44.610;44.078;2023-09-18T22:56:21;100915.97;;;10.94;96.10
55757;BME280;41676;44.610;44.078;2023-09-18T23:01:26;100971.88;;;11.29;96.43
55757;BME280;41676;44.610;44.078;2023-09-18T23:06:30;100987.09;;;11.45;96.72
55757;BME280;41676;44.610;44.078;2023-09-18T23:11:33;100818.06;;;10.30;96.28
55757;BME280;41676;44.610;44.078;2023-09-18T23:16:40;100993.78;;;11.49;96.85
55757;BME280;41676;44.610;44.078;2023-09-18T23:21:41;100793.34;;;10.29;96.31
55757;BME280;41676;44.610;44.078;2023-09-18T23:26:45;100987.38;;;11.68;98.59
55757;BME280;41676;44.610;44.078;2023-09-18T23:31:49;100909.00;;;10.93;95.89
55757;BME280;41676;44.610;44.078;2023-09-18T23:36:50;100850.44;;;10.51;96.10
55757;BME280;41676;44.610;44.078;2023-09-18T23:41:53;100803.34;;;10.17;96.40
55757;BME280;41676;44.610;44.078;2023-09-18T23:46:57;100950.28;;;11.06;96.89
55757;BME280;41676;44.610;44.078;2023-09-18T23:51:59;100926.59;;;10.68;97.14
55757;BME280;41676;44.610;44.078;2023-09-18T23:57:06;100943.75;;;10.74;97.06
